Time;durP1;ratioP1;P1;durP2;ratioP2;P2;SDS_P1;SDS_P2;PMS_P1;PMS_P2;Temp;Humidity;BMP_temperature;BMP_pressure;BME280_temperature;BME280_humidity;BME280_pressure;Samples;Min_cycle;Max_cycle;Signal;HPM_P1;HPM_P2
2024/01/26 00:00:50;;;;;;;0.20;0.20;;;18.90;38.20;;;;;;8358902;28;20116;-49
2024/01/26 00:04:51;;;;;;;0.38;0.38;;;18.80;38.30;;;;;;8358890;28;20095;-49
2024/01/26 00:08:52;;;;;;;0.22;0.22;;;18.80;38.00;;;;;;8364632;28;20064;-48
2024/01/26 00:12:52;;;;;;;0.30;0.30;;;18.90;37.70;;;;;;8364915;28;20040;-48
2024/01/26 00:16:53;;;;;;;0.15;0.15;;;18.90;37.50;;;;;;8364896;28;20078;-48
2024/01/26 00:20:54;;;;;;;0.30;0.30;;;18.90;37.20;;;;;;8364609;28;20091;-48
2024/01/26 00:24:54;;;;;;;0.20;0.20;;;19.00;37.20;;;;;;8364388;28;20123;-49
2024/01/26 00:28:55;;;;;;;0.20;0.20;;;19.00;37.00;;;;;;8364952;28;20263;-51
2024/01/26 00:32:59;;;;;;;0.30;0.30;;;19.00;37.00;;;;;;8364108;28;20099;-53
2024/01/26 00:37:01;;;;;;;0.30;0.30;;;19.00;36.90;;;;;;8363056;28;20033;-53
2024/01/26 00:41:02;;;;;;;0.70;0.30;;;19.10;36.80;;;;;;8363875;28;20044;-50
2024/01/26 00:45:03;;;;;;;0.22;0.22;;;19.00;37.40;;;;;;8363950;28;20033;-52
2024/01/26 00:49:04;;;;;;;0.40;0.40;;;18.90;38.30;;;;;;8363750;28;20115;-53
2024/01/26 00:53:05;;;;;;;0.30;0.30;;;18.80;38.30;;;;;;8363578;28;20040;-53
2024/01/26 00:57:06;;;;;;;0.30;0.30;;;18.80;38.00;;;;;;8345643;28;20037;-53
2024/01/26 01:01:06;;;;;;;0.20;0.20;;;18.90;37.70;;;;;;8363351;28;20033;-51
2024/01/26 01:05:07;;;;;;;0.20;0.20;;;18.90;37.50;;;;;;8363291;28;20396;-51
2024/01/26 01:09:09;;;;;;;0.30;0.30;;;18.90;37.30;;;;;;8362817;28;20053;-52
2024/01/26 01:13:10;;;;;;;0.20;0.20;;;18.90;37.10;;;;;;8362981;28;20041;-53
2024/01/26 01:17:11;;;;;;;0.20;0.20;;;19.00;37.00;;;;;;8362782;28;20036;-51
2024/01/26 01:21:12;;;;;;;0.30;0.20;;;19.00;37.00;;;;;;8362630;28;20513;-51
2024/01/26 01:25:12;;;;;;;0.50;0.35;;;19.00;36.90;;;;;;8361484;28;20049;-51
2024/01/26 01:29:13;;;;;;;0.40;0.40;;;19.10;36.90;;;;;;8362482;28;20025;-50
2024/01/26 01:33:14;;;;;;;0.30;0.30;;;18.90;37.50;;;;;;8362249;28;20036;-53
2024/01/26 01:37:15;;;;;;;0.25;0.25;;;18.80;38.20;;;;;;8362743;28;20037;-49
2024/01/26 01:41:15;;;;;;;0.20;0.20;;;18.80;38.30;;;;;;8362518;28;20036;-51
2024/01/26 01:45:16;;;;;;;0.40;0.30;;;18.80;37.90;;;;;;8361929;28;20076;-49
2024/01/26 01:49:17;;;;;;;0.20;0.20;;;18.90;37.60;;;;;;8362060;28;20037;-51
2024/01/26 01:53:18;;;;;;;;;;;18.90;37.40;;;;;;8362073;28;20550;-49
2024/01/26 01:57:20;;;;;;;0.22;0.22;;;18.90;37.30;;;;;;8361758;28;20534;-47
2024/01/26 02:01:21;;;;;;;0.30;0.30;;;18.90;37.10;;;;;;8361443;28;20021;-48
2024/01/26 02:05:22;;;;;;;0.30;0.30;;;19.00;37.00;;;;;;8361367;28;20041;-49
2024/01/26 02:09:22;;;;;;;0.30;0.30;;;19.00;37.00;;;;;;8361172;28;20068;-49
2024/01/26 02:13:23;;;;;;;0.30;0.30;;;19.00;36.90;;;;;;8361256;28;20551;-48
2024/01/26 02:17:31;;;;;;;0.20;0.20;;;19.00;36.90;;;;;;8361117;28;20433;-48
2024/01/26 02:21:32;;;;;;;0.20;0.20;;;19.00;37.60;;;;;;8361046;28;20037;-49
2024/01/26 02:25:34;;;;;;;0.20;0.20;;;18.80;38.20;;;;;;8359578;28;20502;-49
2024/01/26 02:29:34;;;;;;;0.30;0.30;;;18.70;38.20;;;;;;8359999;28;20640;-49
2024/01/26 02:33:35;;;;;;;0.20;0.20;;;18.80;37.90;;;;;;8360688;28;20291;-49
2024/01/26 02:37:36;;;;;;;0.73;0.40;;;18.80;37.60;;;;;;8360450;28;20523;-49
2024/01/26 02:41:37;;;;;;;0.20;0.20;;;18.90;37.40;;;;;;8360316;28;20106;-50
2024/01/26 02:45:38;;;;;;;0.20;0.20;;;18.90;37.20;;;;;;8359209;28;20037;-50
2024/01/26 02:49:42;;;;;;;0.20;0.20;;;18.90;37.10;;;;;;8360359;28;20033;-52
2024/01/26 02:53:43;;;;;;;0.30;0.30;;;19.00;37.00;;;;;;8359900;28;20490;-53
2024/01/26 02:57:44;;;;;;;0.30;0.30;;;18.90;37.00;;;;;;8360039;28;20450;-51
2024/01/26 03:01:46;;;;;;;0.20;0.20;;;19.00;36.90;;;;;;8359988;28;20441;-53
2024/01/26 03:05:47;;;;;;;0.22;0.22;;;18.90;36.80;;;;;;8359829;28;20136;-54
2024/01/26 03:09:48;;;;;;;0.30;0.30;;;18.90;37.80;;;;;;8358581;28;20049;-53
2024/01/26 03:13:48;;;;;;;0.20;0.20;;;18.80;38.30;;;;;;8360542;28;20036;-53
2024/01/26 03:17:49;;;;;;;0.10;0.10;;;18.70;38.20;;;;;;8359822;28;20025;-53
2024/01/26 03:21:50;;;;;;;0.20;0.20;;;18.80;37.90;;;;;;8359837;28;20341;-54
2024/01/26 03:25:50;;;;;;;0.45;0.45;;;18.80;37.50;;;;;;8359849;28;20033;-53
2024/01/26 03:29:51;;;;;;;0.20;0.20;;;18.90;37.40;;;;;;8359657;28;20033;-54
2024/01/26 03:33:52;;;;;;;0.20;0.20;;;18.90;37.20;;;;;;8359399;28;20296;-53
2024/01/26 03:37:52;;;;;;;0.30;0.30;;;18.90;37.10;;;;;;8359466;28;20485;-55
2024/01/26 03:41:53;;;;;;;0.30;0.30;;;18.90;37.00;;;;;;8362874;28;20041;-53
2024/01/26 03:45:54;;;;;;;0.30;0.30;;;18.90;36.90;;;;;;8365901;28;20120;-54
2024/01/26 03:49:54;;;;;;;0.33;0.33;;;18.90;36.80;;;;;;8365639;28;20033;-54
2024/01/26 03:53:55;;;;;;;0.30;0.30;;;18.90;37.30;;;;;;8365579;28;20297;-54
2024/01/26 03:57:56;;;;;;;0.23;0.23;;;18.90;38.20;;;;;;8365268;28;20060;-53
2024/01/26 04:01:57;;;;;;;0.30;0.30;;;18.70;38.30;;;;;;8365600;28;20287;-54
2024/01/26 04:05:57;;;;;;;0.25;0.20;;;18.70;38.10;;;;;;8365017;28;20310;-55
2024/01/26 04:09:59;;;;;;;0.30;0.30;;;18.80;37.80;;;;;;8364663;28;20057;-53
2024/01/26 04:13:59;;;;;;;0.17;0.17;;;18.80;37.50;;;;;;8364757;28;20107;-54
2024/01/26 04:18:00;;;;;;;0.20;0.20;;;18.80;37.30;;;;;;8364982;28;20110;-53
2024/01/26 04:22:01;;;;;;;0.28;0.28;;;18.90;37.20;;;;;;8364600;28;20086;-53
2024/01/26 04:26:01;;;;;;;1.25;0.30;;;18.90;37.10;;;;;;8364427;28;20112;-54
2024/01/26 04:30:03;;;;;;;0.30;0.30;;;18.90;37.00;;;;;;8364251;28;20390;-54
2024/01/26 04:34:03;;;;;;;0.40;0.20;;;19.00;37.00;;;;;;8364145;28;20368;-52
2024/01/26 04:38:05;;;;;;;0.40;0.40;;;18.90;36.90;;;;;;8364311;28;20024;-53
2024/01/26 04:42:06;;;;;;;0.30;0.30;;;18.90;36.80;;;;;;8363908;28;20279;-53
2024/01/26 04:46:07;;;;;;;0.40;0.40;;;18.80;37.80;;;;;;8364398;28;20040;-53
2024/01/26 04:50:08;;;;;;;;;;;18.70;38.30;;;;;;8364164;28;20290;-54
2024/01/26 04:54:09;;;;;;;0.30;0.30;;;18.70;38.10;;;;;;8363865;28;19915;-53
2024/01/26 04:58:10;;;;;;;0.40;0.40;;;18.70;37.80;;;;;;8363363;28;20534;-54
2024/01/26 05:02:11;;;;;;;0.38;0.38;;;18.80;37.50;;;;;;8363547;28;20271;-53
2024/01/26 05:06:12;;;;;;;0.20;0.20;;;18.80;37.30;;;;;;8363831;28;20171;-52
2024/01/26 05:10:14;;;;;;;0.30;0.30;;;18.80;37.20;;;;;;8361771;28;20584;-51
2024/01/26 05:14:15;;;;;;;0.30;0.30;;;18.90;37.10;;;;;;8363017;28;20036;-53
2024/01/26 05:18:16;;;;;;;0.30;0.30;;;18.90;36.90;;;;;;8362795;28;20033;-52
2024/01/26 05:22:18;;;;;;;0.30;0.30;;;18.90;36.80;;;;;;8363074;28;20710;-53
2024/01/26 05:26:19;;;;;;;0.30;0.30;;;18.90;36.70;;;;;;8362378;28;20438;-51
2024/01/26 05:30:20;;;;;;;0.32;0.32;;;19.00;36.70;;;;;;8362601;28;20040;-51
2024/01/26 05:34:20;;;;;;;0.40;0.30;;;18.90;37.80;;;;;;8362230;28;20272;-52
2024/01/26 05:38:21;;;;;;;0.22;0.20;;;18.70;38.30;;;;;;8362280;28;20398;-51
2024/01/26 05:42:22;;;;;;;0.20;0.20;;;18.80;37.90;;;;;;8360812;28;20041;-53
2024/01/26 05:46:22;;;;;;;0.30;0.30;;;18.80;37.60;;;;;;8361848;28;20044;-50
2024/01/26 05:50:23;;;;;;;0.10;0.10;;;18.90;37.40;;;;;;8361862;28;20052;-51
2024/01/26 05:54:24;;;;;;;0.20;0.20;;;19.00;37.10;;;;;;8361516;28;20028;-52
2024/01/26 05:58:24;;;;;;;0.22;0.22;;;19.00;36.90;;;;;;8361412;28;20036;-52
2024/01/26 06:02:27;;;;;;;0.22;0.22;;;19.00;36.80;;;;;;8361228;28;20040;-51
2024/01/26 06:06:28;;;;;;;0.30;0.30;;;19.00;36.70;;;;;;8360905;28;20040;-52
2024/01/26 06:10:28;;;;;;;0.20;0.20;;;19.10;36.60;;;;;;8360966;28;20518;-53
2024/01/26 06:14:29;;;;;;;0.30;0.30;;;19.10;36.50;;;;;;8361160;28;20123;-52
2024/01/26 06:18:30;;;;;;;0.28;0.25;;;19.10;36.50;;;;;;8360827;28;20051;-50
2024/01/26 06:22:31;;;;;;;0.20;0.20;;;18.90;37.60;;;;;;8360868;28;20064;-51
2024/01/26 06:26:31;;;;;;;0.20;0.20;;;18.90;37.90;;;;;;8360649;28;20091;-51
2024/01/26 06:30:32;;;;;;;0.20;0.10;;;18.90;37.60;;;;;;8360513;28;20029;-51
2024/01/26 06:34:33;;;;;;;0.30;0.30;;;18.90;37.30;;;;;;8360418;28;20298;-53
2024/01/26 06:38:34;;;;;;;0.30;0.30;;;19.00;37.10;;;;;;8360448;28;20496;-50
2024/01/26 06:42:36;;;;;;;0.25;0.25;;;19.00;36.90;;;;;;8359170;28;20387;-52
2024/01/26 06:46:37;;;;;;;0.38;0.38;;;19.10;36.80;;;;;;8360305;28;20102;-50
2024/01/26 06:50:38;;;;;;;0.20;0.20;;;19.10;36.60;;;;;;8360300;28;20062;-50
2024/01/26 06:54:39;;;;;;;0.20;0.20;;;19.10;36.60;;;;;;8360861;28;20028;-53
2024/01/26 06:58:40;;;;;;;0.32;0.32;;;19.10;37.00;;;;;;8359768;28;20095;-51
2024/01/26 07:02:41;;;;;;;0.30;0.30;;;19.10;36.40;;;;;;8360424;28;20041;-52
2024/01/26 07:06:42;;;;;;;0.38;0.38;;;19.10;36.60;;;;;;8359819;28;20304;-51
2024/01/26 07:10:42;;;;;;;0.40;0.40;;;19.00;37.60;;;;;;8359964;28;20041;-50
2024/01/26 07:14:43;;;;;;;0.40;0.40;;;18.90;38.00;;;;;;8362627;28;20032;-50
2024/01/26 07:18:44;;;;;;;0.20;0.20;;;18.90;37.70;;;;;;8371710;28;20497;-53
2024/01/26 07:22:44;;;;;;;0.32;0.30;;;18.90;37.40;;;;;;8370675;28;20033;-53
2024/01/26 07:26:46;;;;;;;0.30;0.30;;;19.00;37.10;;;;;;8370407;28;20068;-52
2024/01/26 07:30:47;;;;;;;0.30;0.30;;;19.00;37.00;;;;;;8370645;28;20041;-49
2024/01/26 07:34:47;;;;;;;0.38;0.38;;;19.00;36.90;;;;;;8370422;28;20035;-50
2024/01/26 07:38:48;;;;;;;0.20;0.20;;;19.00;36.70;;;;;;8370236;28;20025;-49
2024/01/26 07:42:49;;;;;;;0.30;0.30;;;19.10;36.60;;;;;;8370164;28;20063;-48
2024/01/26 07:46:50;;;;;;;0.30;0.30;;;19.10;36.50;;;;;;8370618;28;20052;-49
2024/01/26 07:50:51;;;;;;;0.30;0.30;;;19.10;36.50;;;;;;8370032;28;20037;-50
2024/01/26 07:54:53;;;;;;;0.10;0.10;;;19.10;36.60;;;;;;8369923;28;20076;-50
2024/01/26 07:58:53;;;;;;;0.40;0.40;;;19.00;37.60;;;;;;8370374;28;20116;-49
2024/01/26 08:02:54;;;;;;;0.55;0.35;;;18.90;37.80;;;;;;8370162;28;20584;-48
2024/01/26 08:06:55;;;;;;;0.47;0.30;;;18.90;37.50;;;;;;8368461;28;20061;-48
2024/01/26 08:10:57;;;;;;;0.30;0.30;;;19.00;37.20;;;;;;8368607;28;20124;-50
2024/01/26 08:14:57;;;;;;;0.28;0.28;;;19.00;37.00;;;;;;8369926;28;20036;-50
2024/01/26 08:18:58;;;;;;;0.40;0.30;;;19.10;36.90;;;;;;8370972;28;20032;-49
2024/01/26 08:22:59;;;;;;;0.52;0.50;;;19.10;36.70;;;;;;8369581;28;20025;-51
2024/01/26 08:27:00;;;;;;;0.30;0.30;;;19.10;36.60;;;;;;8366627;28;20079;-48
2024/01/26 08:31:01;;;;;;;0.30;0.30;;;19.10;36.50;;;;;;8364593;28;20443;-49
2024/01/26 08:35:01;;;;;;;0.35;0.35;;;19.10;36.40;;;;;;8364313;28;20037;-50
2024/01/26 08:39:02;;;;;;;0.20;0.20;;;19.20;36.30;;;;;;8364083;28;20475;-50
2024/01/26 08:43:03;;;;;;;0.20;0.20;;;19.10;36.80;;;;;;8362698;28;20127;-50
2024/01/26 08:47:04;;;;;;;0.30;0.30;;;19.00;37.60;;;;;;8364438;28;20112;-53
2024/01/26 08:51:05;;;;;;;0.40;0.30;;;19.00;37.80;;;;;;8363707;28;20117;-51
2024/01/26 08:55:06;;;;;;;0.20;0.20;;;18.90;37.40;;;;;;8362436;28;20041;-53
2024/01/26 08:59:07;;;;;;;0.82;0.35;;;19.00;37.20;;;;;;8362882;28;20025;-52
2024/01/26 09:03:08;;;;;;;;;;;19.00;37.00;;;;;;8364017;28;20033;-52
2024/01/26 09:07:09;;;;;;;0.30;0.30;;;19.10;36.80;;;;;;8363209;28;19920;-51
2024/01/26 09:11:09;;;;;;;0.30;0.28;;;19.10;36.70;;;;;;8363229;28;20376;-50
2024/01/26 09:15:10;;;;;;;0.20;0.20;;;19.10;36.60;;;;;;8363046;28;20033;-50
2024/01/26 09:19:11;;;;;;;0.30;0.30;;;19.10;36.50;;;;;;8362974;28;20116;-50
2024/01/26 09:23:12;;;;;;;0.75;0.30;;;19.10;36.40;;;;;;8362801;28;20478;-52
2024/01/26 09:27:13;;;;;;;0.30;0.30;;;19.10;36.30;;;;;;8362719;28;20086;-50
2024/01/26 09:31:14;;;;;;;;;;;19.10;37.00;;;;;;8363136;28;20037;-52
2024/01/26 09:35:14;;;;;;;0.20;0.20;;;19.00;37.70;;;;;;8361036;28;19913;-50
2024/01/26 09:39:15;;;;;;;0.40;0.40;;;18.90;37.70;;;;;;8361697;28;20036;-52
2024/01/26 09:43:16;;;;;;;0.38;0.38;;;18.90;37.40;;;;;;8362248;28;20033;-52
2024/01/26 09:47:18;;;;;;;0.30;0.30;;;19.00;37.10;;;;;;8362286;28;20047;-52
2024/01/26 09:51:20;;;;;;;0.20;0.20;;;19.00;37.00;;;;;;8361971;28;20025;-49
2024/01/26 09:55:21;;;;;;;0.40;0.40;;;19.10;36.80;;;;;;8361783;28;20387;-48
2024/01/26 09:59:22;;;;;;;0.20;0.20;;;19.10;36.60;;;;;;8361413;28;20033;-50
2024/01/26 10:03:24;;;;;;;0.80;0.40;;;19.10;36.50;;;;;;8361691;28;20091;-48
2024/01/26 10:07:25;;;;;;;0.98;0.40;;;19.10;36.40;;;;;;8361446;28;20550;-47
2024/01/26 10:11:26;;;;;;;0.30;0.30;;;19.20;36.40;;;;;;8361169;28;20399;-49
2024/01/26 10:15:26;;;;;;;1.10;0.40;;;19.20;36.30;;;;;;8361156;28;20108;-48
2024/01/26 10:19:28;;;;;;;0.35;0.30;;;19.10;37.20;;;;;;8361036;28;20029;-49
2024/01/26 10:23:29;;;;;;;;;;;19.00;37.70;;;;;;8361203;28;20510;-48
2024/01/26 10:27:30;;;;;;;0.43;0.40;;;19.00;37.60;;;;;;8361001;28;19909;-49
2024/01/26 10:31:33;;;;;;;0.63;0.35;;;19.00;37.40;;;;;;8360574;28;20063;-50
2024/01/26 10:35:35;;;;;;;0.40;0.40;;;19.00;37.00;;;;;;8360441;28;20071;-48
2024/01/26 10:39:37;;;;;;;0.35;0.32;;;19.10;36.90;;;;;;8360469;28;20033;-47
2024/01/26 10:43:39;;;;;;;0.45;0.45;;;19.10;36.70;;;;;;8360096;28;20033;-49
2024/01/26 10:47:41;;;;;;;0.50;0.50;;;19.10;36.70;;;;;;8360198;28;20500;-48
2024/01/26 10:51:42;;;;;;;0.30;0.30;;;19.10;36.60;;;;;;8359790;28;20494;-48
2024/01/26 10:55:45;;;;;;;0.30;0.30;;;19.10;36.50;;;;;;8359769;28;20036;-47
2024/01/26 10:59:47;;;;;;;0.43;0.43;;;19.10;36.50;;;;;;8358842;28;20065;-53
2024/01/26 11:03:48;;;;;;;0.45;0.40;;;19.10;36.40;;;;;;8360159;28;20463;-51
2024/01/26 11:07:49;;;;;;;0.40;0.40;;;19.10;37.30;;;;;;8359400;28;20068;-50
2024/01/26 11:11:52;;;;;;;0.30;0.30;;;18.90;37.80;;;;;;8359745;28;20033;-50
2024/01/26 11:16:04;;;;;;;0.20;0.20;;;18.90;37.70;;;;;;8359750;28;20390;-50
2024/01/26 11:20:09;;;;;;;;;;;18.90;37.40;;;;;;8359946;28;20520;-53
2024/01/26 11:24:15;;;;;;;0.28;0.25;;;19.00;37.10;;;;;;8359853;28;19904;-52
2024/01/26 11:28:17;;;;;;;0.35;0.30;;;19.00;36.90;;;;;;8359298;28;20090;-50
2024/01/26 11:32:19;;;;;;;0.30;0.30;;;19.10;37.30;;;;;;8359879;28;20457;-51
2024/01/26 11:36:20;;;;;;;0.38;0.30;;;19.10;36.60;;;;;;8359841;28;20029;-50
2024/01/26 11:40:23;;;;;;;0.38;0.38;;;19.10;37.10;;;;;;8359317;28;20068;-50
2024/01/26 11:44:30;;;;;;;0.52;0.30;;;19.10;36.40;;;;;;8357958;28;20383;-52
2024/01/26 11:48:30;;;;;;;0.20;0.20;;;19.10;36.40;;;;;;8359139;28;20479;-50
2024/01/26 11:52:34;;;;;;;0.38;0.38;;;19.10;36.30;;;;;;8359036;28;20489;-53
2024/01/26 11:56:34;;;;;;;0.32;0.32;;;19.10;37.40;;;;;;8359071;28;20208;-53
2024/01/26 12:00:35;;;;;;;0.30;0.30;;;18.90;37.80;;;;;;8359150;28;20390;-52
2024/01/26 12:04:36;;;;;;;0.40;0.40;;;18.90;37.60;;;;;;8364865;28;20051;-52
2024/01/26 12:08:37;;;;;;;0.28;0.22;;;19.00;37.30;;;;;;8364765;28;20422;-50
2024/01/26 12:12:37;;;;;;;0.30;0.30;;;19.00;37.00;;;;;;8364960;28;20399;-50
2024/01/26 12:16:40;;;;;;;0.30;0.30;;;19.10;36.80;;;;;;8365277;28;20025;-52
2024/01/26 12:20:41;;;;;;;2.05;0.32;;;19.10;36.70;;;;;;8363371;28;20056;-49
2024/01/26 12:24:41;;;;;;;0.40;0.40;;;19.10;36.60;;;;;;8364565;28;20044;-50
2024/01/26 12:28:42;;;;;;;0.35;0.30;;;19.10;36.50;;;;;;8364526;28;20060;-50
2024/01/26 12:32:43;;;;;;;0.30;0.30;;;19.10;36.50;;;;;;8364156;28;20056;-53
2024/01/26 12:36:44;;;;;;;0.20;0.20;;;19.10;36.30;;;;;;8364274;28;20033;-51
2024/01/26 12:40:44;;;;;;;0.30;0.30;;;19.10;36.30;;;;;;8364186;28;20041;-52
2024/01/26 12:44:45;;;;;;;1.10;0.40;;;19.00;37.40;;;;;;8362804;28;20164;-51
2024/01/26 12:48:47;;;;;;;0.32;0.32;;;18.90;38.00;;;;;;8362683;28;20375;-51
2024/01/26 12:52:48;;;;;;;0.57;0.40;;;18.90;37.60;;;;;;8363791;28;20128;-51
2024/01/26 12:56:48;;;;;;;0.50;0.50;;;18.90;37.30;;;;;;8363374;28;20520;-52
2024/01/26 13:00:49;;;;;;;0.63;0.30;;;19.00;37.10;;;;;;8363753;28;20083;-51
2024/01/26 13:04:52;;;;;;;0.20;0.20;;;19.00;36.80;;;;;;8363441;28;20025;-54
2024/01/26 13:08:53;;;;;;;0.30;0.20;;;19.10;36.70;;;;;;8362880;28;20053;-53
2024/01/26 13:12:54;;;;;;;0.30;0.30;;;19.10;36.60;;;;;;8362847;28;20090;-53
2024/01/26 13:16:54;;;;;;;0.30;0.30;;;19.10;36.50;;;;;;8363283;28;20063;-51
2024/01/26 13:20:56;;;;;;;0.20;0.20;;;19.10;36.40;;;;;;8361694;28;20489;-54
2024/01/26 13:24:56;;;;;;;0.25;0.25;;;19.10;36.40;;;;;;8362827;28;20064;-55
2024/01/26 13:28:57;;;;;;;0.30;0.30;;;19.10;36.40;;;;;;8390202;28;20028;-53
2024/01/26 13:32:58;;;;;;;0.50;0.30;;;19.00;37.60;;;;;;8396021;28;20486;-53
2024/01/26 13:37:00;;;;;;;0.28;0.28;;;18.90;37.90;;;;;;8395376;28;20382;-53
2024/01/26 13:41:01;;;;;;;0.30;0.30;;;18.90;37.60;;;;;;8395333;28;20033;-55
2024/01/26 13:45:02;;;;;;;0.30;0.30;;;19.00;37.30;;;;;;8395465;28;20064;-53
2024/01/26 13:49:03;;;;;;;0.20;0.20;;;19.00;37.00;;;;;;8395090;28;20047;-55
2024/01/26 13:53:05;;;;;;;0.20;0.20;;;19.10;36.80;;;;;;8395102;28;20044;-54
2024/01/26 13:57:06;;;;;;;0.20;0.20;;;19.10;36.60;;;;;;8382994;28;20041;-54
2024/01/26 14:01:07;;;;;;;0.38;0.30;;;19.10;36.60;;;;;;8361549;28;20033;-54
2024/01/26 14:05:09;;;;;;;0.60;0.40;;;19.10;36.50;;;;;;8361486;28;20040;-53
2024/01/26 14:09:09;;;;;;;0.43;0.20;;;19.10;37.00;;;;;;8361314;28;20049;-54
2024/01/26 14:13:10;;;;;;;0.30;0.30;;;19.10;36.30;;;;;;8359826;28;20037;-54
2024/01/26 14:17:11;;;;;;;0.30;0.30;;;19.20;36.50;;;;;;8361298;28;20052;-54
2024/01/26 14:21:11;;;;;;;0.20;0.20;;;19.00;37.60;;;;;;8361074;28;20056;-53
2024/01/26 14:25:12;;;;;;;0.30;0.30;;;18.90;37.80;;;;;;8360292;28;20115;-55
2024/01/26 14:29:17;;;;;;;0.30;0.30;;;18.90;37.50;;;;;;8360969;28;20041;-54
2024/01/26 14:33:18;;;;;;;0.20;0.20;;;19.00;37.20;;;;;;8360777;28;20079;-55
2024/01/26 14:37:19;;;;;;;0.30;0.30;;;19.00;37.00;;;;;;8360862;28;20033;-53
2024/01/26 14:41:19;;;;;;;0.20;0.20;;;19.10;36.80;;;;;;8360828;28;20055;-53
2024/01/26 14:45:21;;;;;;;0.37;0.37;;;19.10;36.70;;;;;;8360641;28;20541;-54
2024/01/26 14:49:22;;;;;;;0.40;0.40;;;19.10;36.60;;;;;;8360155;28;20366;-54
2024/01/26 14:53:23;;;;;;;0.30;0.30;;;19.10;36.50;;;;;;8360091;28;20039;-54
2024/01/26 14:57:24;;;;;;;0.40;0.40;;;19.10;36.40;;;;;;8360181;28;20031;-53
2024/01/26 15:01:24;;;;;;;0.40;0.30;;;19.20;36.40;;;;;;8360778;28;20040;-54
2024/01/26 15:05:25;;;;;;;0.52;0.40;;;19.10;36.60;;;;;;8359967;28;20071;-54
2024/01/26 15:09:27;;;;;;;0.38;0.38;;;19.00;37.70;;;;;;8358379;28;20076;-53
2024/01/26 15:13:27;;;;;;;0.30;0.30;;;19.00;37.80;;;;;;8358809;28;20124;-54
2024/01/26 15:17:28;;;;;;;0.40;0.40;;;19.00;37.50;;;;;;8359735;28;20479;-55
2024/01/26 15:21:29;;;;;;;0.30;0.30;;;19.00;37.20;;;;;;8359717;28;20386;-54
2024/01/26 15:25:30;;;;;;;0.40;0.40;;;19.10;37.00;;;;;;8359551;28;20041;-55
2024/01/26 15:29:31;;;;;;;0.30;0.30;;;19.10;36.70;;;;;;8359702;28;20029;-53
2024/01/26 15:33:31;;;;;;;0.30;0.30;;;19.10;36.60;;;;;;8360201;28;20033;-54
2024/01/26 15:37:33;;;;;;;0.32;0.32;;;19.20;36.50;;;;;;8364252;28;20035;-55
2024/01/26 15:41:34;;;;;;;0.30;0.30;;;19.10;36.50;;;;;;8365981;28;20032;-54
2024/01/26 15:45:34;;;;;;;0.40;0.40;;;19.20;36.50;;;;;;8364926;28;20074;-55
2024/01/26 15:49:36;;;;;;;0.20;0.20;;;19.20;36.90;;;;;;8365893;28;20146;-55
2024/01/26 15:53:37;;;;;;;0.30;0.30;;;19.10;36.80;;;;;;8365426;28;20057;-53
2024/01/26 15:57:38;;;;;;;0.45;0.30;;;19.00;37.60;;;;;;8365803;28;20029;-54
2024/01/26 16:01:39;;;;;;;0.30;0.30;;;18.90;37.70;;;;;;8366250;28;20090;-54
2024/01/26 16:05:39;;;;;;;0.30;0.30;;;18.90;37.40;;;;;;8365378;28;20048;-54
2024/01/26 16:09:41;;;;;;;0.38;0.38;;;19.00;37.20;;;;;;8365043;28;20119;-54
2024/01/26 16:13:42;;;;;;;0.50;0.50;;;19.00;37.00;;;;;;8364926;28;20033;-54
2024/01/26 16:17:42;;;;;;;0.30;0.30;;;19.10;36.90;;;;;;8365107;28;20118;-54
2024/01/26 16:21:43;;;;;;;0.40;0.40;;;19.10;36.70;;;;;;8364965;28;20029;-55
2024/01/26 16:25:44;;;;;;;0.20;0.20;;;19.10;36.60;;;;;;8364603;28;20059;-52
2024/01/26 16:29:45;;;;;;;0.30;0.30;;;19.10;36.40;;;;;;8364792;28;20309;-55
2024/01/26 16:33:45;;;;;;;0.40;0.40;;;19.20;36.40;;;;;;8364687;28;20040;-55
2024/01/26 16:37:46;;;;;;;0.35;0.35;;;19.20;36.30;;;;;;8364108;28;20663;-54
2024/01/26 16:41:47;;;;;;;0.30;0.30;;;19.10;37.00;;;;;;8364148;28;20464;-54
2024/01/26 16:45:48;;;;;;;0.35;0.35;;;19.00;37.70;;;;;;8364063;28;20519;-55
2024/01/26 16:49:53;;;;;;;0.25;0.25;;;19.00;37.70;;;;;;8363311;28;20068;-54
2024/01/26 16:53:54;;;;;;;0.30;0.30;;;19.00;37.40;;;;;;8363759;28;20041;-54
2024/01/26 16:57:55;;;;;;;;;;;19.00;37.10;;;;;;8363826;28;20158;-55
2024/01/26 17:01:56;;;;;;;0.40;0.40;;;19.10;36.90;;;;;;8363651;28;19909;-52
2024/01/26 17:05:58;;;;;;;0.15;0.15;;;19.10;36.70;;;;;;8361977;28;20033;-54
2024/01/26 17:09:59;;;;;;;0.30;0.30;;;19.10;36.60;;;;;;8363774;28;20083;-54
2024/01/26 17:13:59;;;;;;;0.30;0.30;;;19.20;36.60;;;;;;8363115;28;20088;-53
2024/01/26 17:18:01;;;;;;;0.20;0.20;;;19.10;36.40;;;;;;8362985;28;20487;-54
2024/01/26 17:22:02;;;;;;;1.00;0.40;;;19.20;36.50;;;;;;8363277;28;20133;-52
2024/01/26 17:26:03;;;;;;;0.40;0.40;;;19.20;36.40;;;;;;8362662;28;20025;-52
2024/01/26 17:30:05;;;;;;;0.43;0.43;;;19.10;37.20;;;;;;8362496;28;20083;-53
2024/01/26 17:34:07;;;;;;;0.30;0.30;;;19.00;37.80;;;;;;8363053;28;20073;-53
2024/01/26 17:38:07;;;;;;;0.38;0.30;;;18.90;37.70;;;;;;8362220;28;20062;-52
2024/01/26 17:42:08;;;;;;;0.20;0.20;;;19.00;37.40;;;;;;8362264;28;20479;-51
2024/01/26 17:46:10;;;;;;;0.30;0.30;;;19.00;37.20;;;;;;8362173;28;20044;-54
2024/01/26 17:50:11;;;;;;;0.25;0.25;;;19.10;37.00;;;;;;8361795;28;20418;-54
2024/01/26 17:54:11;;;;;;;0.20;0.20;;;19.10;36.80;;;;;;8361795;28;20110;-54
2024/01/26 17:58:12;;;;;;;0.25;0.25;;;19.10;36.60;;;;;;8361350;28;20371;-52
2024/01/26 18:02:13;;;;;;;0.30;0.30;;;19.10;36.50;;;;;;8361092;28;20107;-49
2024/01/26 18:06:14;;;;;;;0.30;0.30;;;19.20;36.40;;;;;;8361357;28;20037;-48
2024/01/26 18:10:15;;;;;;;0.30;0.30;;;19.10;36.30;;;;;;8361015;28;20127;-48
2024/01/26 18:14:16;;;;;;;0.30;0.30;;;19.20;36.30;;;;;;8361121;28;20021;-52
2024/01/26 18:18:17;;;;;;;;;;;19.10;37.20;;;;;;8361744;28;20025;-48
2024/01/26 18:22:18;;;;;;;0.30;0.30;;;19.00;37.80;;;;;;8361232;28;19947;-52
2024/01/26 18:26:19;;;;;;;0.20;0.20;;;18.90;37.70;;;;;;8360744;28;20036;-50
2024/01/26 18:30:20;;;;;;;0.30;0.30;;;19.00;37.30;;;;;;8360694;28;20059;-48
2024/01/26 18:34:20;;;;;;;0.30;0.30;;;19.00;37.10;;;;;;8360766;28;20442;-49
2024/01/26 18:38:21;;;;;;;0.30;0.20;;;19.10;36.90;;;;;;8342987;28;20290;-51
2024/01/26 18:42:23;;;;;;;0.20;0.20;;;19.20;36.70;;;;;;8360398;28;20040;-49
2024/01/26 18:46:24;;;;;;;0.20;0.20;;;19.20;36.60;;;;;;8360239;28;20033;-49
2024/01/26 18:50:24;;;;;;;0.40;0.30;;;19.20;36.50;;;;;;8360303;28;20029;-50
2024/01/26 18:54:25;;;;;;;0.30;0.30;;;19.20;36.40;;;;;;8360089;28;20094;-49
2024/01/26 18:58:26;;;;;;;0.30;0.30;;;19.20;36.40;;;;;;8359868;28;20025;-51
2024/01/26 19:02:26;;;;;;;0.43;0.20;;;19.20;36.30;;;;;;8360025;28;20044;-49
2024/01/26 19:06:27;;;;;;;0.30;0.30;;;19.10;37.30;;;;;;8359633;28;20036;-48
2024/01/26 19:10:29;;;;;;;0.40;0.40;;;19.00;37.80;;;;;;8359636;28;20052;-53
2024/01/26 19:14:30;;;;;;;0.22;0.22;;;18.90;37.70;;;;;;8359792;28;20482;-52
2024/01/26 19:18:30;;;;;;;0.20;0.20;;;19.00;37.40;;;;;;8358456;28;20396;-53
2024/01/26 19:22:31;;;;;;;0.20;0.20;;;19.00;37.10;;;;;;8359637;28;20037;-54
2024/01/26 19:26:32;;;;;;;0.40;0.40;;;19.10;36.90;;;;;;8359910;28;20435;-53
2024/01/26 19:30:35;;;;;;;0.20;0.20;;;19.10;36.80;;;;;;8359452;28;20422;-53
2024/01/26 19:34:37;;;;;;;0.20;0.20;;;19.10;36.70;;;;;;8359424;28;20120;-55
2024/01/26 19:38:39;;;;;;;0.30;0.30;;;19.10;36.60;;;;;;8360298;28;20068;-54
2024/01/26 19:42:40;;;;;;;0.45;0.30;;;19.20;36.50;;;;;;8359683;28;20068;-55
2024/01/26 19:46:41;;;;;;;0.50;0.28;;;19.20;36.40;;;;;;8359876;28;20033;-52
2024/01/26 19:50:42;;;;;;;0.20;0.20;;;19.20;36.30;;;;;;8359341;28;20437;-54
2024/01/26 19:54:42;;;;;;;0.20;0.20;;;19.10;37.30;;;;;;8359134;28;20040;-53
2024/01/26 19:58:43;;;;;;;0.30;0.30;;;19.00;37.90;;;;;;8359147;28;20422;-54
2024/01/26 20:02:44;;;;;;;0.17;0.17;;;19.00;37.60;;;;;;8359136;28;20291;-53
2024/01/26 20:06:44;;;;;;;0.30;0.30;;;19.00;37.30;;;;;;8358927;28;20053;-52
2024/01/26 20:10:45;;;;;;;0.40;0.40;;;19.10;37.10;;;;;;8359041;28;20037;-55
2024/01/26 20:14:46;;;;;;;0.28;0.28;;;19.10;36.80;;;;;;8359029;28;20498;-55
2024/01/26 20:18:47;;;;;;;0.20;0.20;;;19.10;36.70;;;;;;8357601;28;20044;-52
2024/01/26 20:22:47;;;;;;;0.20;0.20;;;19.20;36.60;;;;;;8360607;28;20036;-50
2024/01/26 20:26:48;;;;;;;0.30;0.30;;;19.20;36.60;;;;;;8364897;28;20037;-48
2024/01/26 20:30:49;;;;;;;0.28;0.28;;;19.20;36.40;;;;;;8364856;28;20041;-50
2024/01/26 20:34:51;;;;;;;0.20;0.20;;;19.20;36.40;;;;;;8364702;28;20371;-50
2024/01/26 20:38:54;;;;;;;0.30;0.30;;;19.20;36.30;;;;;;8364508;28;20037;-51
2024/01/26 20:42:59;;;;;;;0.40;0.40;;;19.10;37.30;;;;;;8364193;28;20033;-50
2024/01/26 20:47:00;;;;;;;0.20;0.20;;;19.00;37.90;;;;;;8364416;28;20065;-49
2024/01/26 20:51:00;;;;;;;0.20;0.20;;;19.00;37.60;;;;;;8364341;28;20083;-51
2024/01/26 20:55:02;;;;;;;0.22;0.22;;;19.00;37.20;;;;;;8363608;28;20120;-49